createdAt,value
2023-03-29T00:00:12.639Z,3.53
2023-03-29T00:02:40.670Z,4.03
2023-03-29T00:05:09.953Z,3.20
2023-03-29T00:07:37.780Z,2.20
2023-03-29T00:10:07.535Z,2.97
2023-03-29T00:12:35.471Z,4.50
2023-03-29T00:15:03.428Z,3.43
2023-03-29T00:17:32.626Z,4.37
2023-03-29T00:20:00.587Z,5.10
2023-03-29T00:22:28.383Z,3.23
2023-03-29T00:24:56.431Z,6.80
2023-03-29T00:27:24.367Z,4.53
2023-03-29T00:29:52.206Z,4.70
2023-03-29T00:32:20.037Z,3.20
2023-03-29T00:34:50.835Z,3.07
2023-03-29T00:37:19.301Z,4.60
2023-03-29T00:39:48.240Z,4.17
2023-03-29T00:42:17.885Z,3.00
2023-03-29T00:44:58.794Z,5.80
2023-03-29T00:47:30.958Z,3.97
2023-03-29T00:50:06.101Z,3.93
2023-03-29T00:52:35.741Z,5.10
2023-03-29T00:55:07.725Z,4.20
2023-03-29T00:57:35.924Z,4.77
2023-03-29T01:00:09.973Z,4.10
2023-03-29T01:02:39.819Z,5.97
2023-03-29T01:05:14.513Z,4.47
2023-03-29T01:07:48.228Z,5.40
2023-03-29T01:10:21.683Z,3.87
2023-03-29T01:12:52.724Z,4.13
2023-03-29T01:15:23.459Z,4.17
2023-03-29T01:17:53.813Z,5.63
2023-03-29T01:20:30.752Z,4.80
2023-03-29T01:23:22.963Z,4.83
2023-03-29T01:26:03.958Z,4.00
2023-03-29T01:28:37.124Z,3.00
2023-03-29T01:31:08.580Z,7.63
2023-03-29T01:33:41.596Z,5.30
2023-03-29T01:36:17.403Z,4.33
2023-03-29T01:38:49.957Z,5.90
2023-03-29T01:41:18.006Z,3.97
2023-03-29T01:43:52.156Z,5.03
2023-03-29T01:46:27.256Z,3.47
2023-03-29T01:48:58.067Z,7.10
2023-03-29T01:51:30.674Z,7.63
2023-03-29T01:54:04.314Z,2.43
2023-03-29T01:56:36.878Z,4.53
2023-03-29T01:59:09.690Z,3.67
2023-03-29T02:01:43.814Z,3.47
2023-03-29T02:04:14.820Z,2.57
2023-03-29T02:06:43.567Z,5.30
2023-03-29T02:09:11.782Z,5.10
2023-03-29T02:11:41.821Z,5.17
2023-03-29T02:14:10.945Z,4.23
2023-03-29T02:16:40.376Z,3.73
2023-03-29T02:19:10.791Z,4.80
2023-03-29T02:21:48.299Z,5.47
2023-03-29T02:24:20.718Z,3.03
2023-03-29T02:26:49.563Z,4.23
2023-03-29T02:29:18.716Z,5.47
2023-03-29T02:31:54.000Z,5.03
2023-03-29T02:34:28.228Z,6.00
2023-03-29T02:37:00.192Z,4.03
2023-03-29T02:39:31.488Z,6.40
2023-03-29T02:42:00.528Z,2.83
2023-03-29T02:44:33.901Z,3.80
2023-03-29T02:47:07.765Z,5.37
2023-03-29T02:49:35.888Z,4.40
2023-03-29T02:52:10.383Z,5.77
2023-03-29T02:54:43.643Z,4.03
2023-03-29T02:57:12.377Z,5.17
2023-03-29T02:59:44.089Z,4.87
2023-03-29T03:02:13.591Z,4.43
2023-03-29T03:04:41.462Z,6.00
2023-03-29T03:07:09.393Z,5.00
2023-03-29T03:09:41.192Z,3.90
2023-03-29T03:12:09.156Z,5.37
2023-03-29T03:14:36.930Z,4.53
2023-03-29T03:17:06.294Z,4.63
2023-03-29T03:19:34.030Z,4.10
2023-03-29T03:22:01.839Z,4.37
2023-03-29T03:24:29.560Z,5.33
2023-03-29T03:26:58.269Z,3.50
2023-03-29T03:29:26.206Z,4.67
2023-03-29T03:31:54.384Z,4.77
2023-03-29T03:34:23.928Z,4.10
2023-03-29T03:36:51.714Z,6.80
2023-03-29T03:39:19.604Z,6.73
2023-03-29T03:41:47.506Z,4.17
2023-03-29T03:44:15.251Z,4.40
2023-03-29T03:46:43.044Z,5.63
2023-03-29T03:49:10.862Z,5.70
2023-03-29T03:51:41.900Z,5.30
2023-03-29T03:54:09.773Z,6.27
2023-03-29T03:56:37.626Z,4.27
2023-03-29T03:59:07.094Z,5.83
2023-03-29T04:01:35.343Z,6.37
2023-03-29T04:04:03.280Z,3.77
2023-03-29T04:06:31.399Z,4.10
2023-03-29T04:09:00.588Z,4.53
2023-03-29T04:11:28.368Z,7.40
2023-03-29T04:13:57.628Z,3.97
2023-03-29T04:16:25.772Z,4.70
2023-03-29T04:18:53.647Z,5.67
2023-03-29T04:21:21.731Z,7.43
2023-03-29T04:23:49.970Z,3.97
2023-03-29T04:26:19.146Z,4.33
2023-03-29T04:28:47.408Z,3.47
2023-03-29T04:31:16.136Z,3.93
2023-03-29T04:33:46.742Z,3.53
2023-03-29T04:36:15.877Z,7.77
2023-03-29T04:38:47.393Z,5.13
2023-03-29T04:41:16.114Z,6.27
2023-03-29T04:43:46.660Z,5.07
2023-03-29T04:46:15.013Z,3.97
2023-03-29T04:48:43.512Z,3.70
2023-03-29T04:51:11.674Z,4.70
2023-03-29T04:53:39.468Z,4.80
2023-03-29T04:56:08.203Z,5.73
2023-03-29T04:58:36.328Z,6.53
2023-03-29T05:01:05.855Z,6.17
2023-03-29T05:03:34.338Z,4.70
2023-03-29T05:06:06.875Z,7.63
2023-03-29T05:08:35.004Z,5.73
2023-03-29T05:11:03.937Z,5.97
2023-03-29T05:13:31.946Z,5.73
2023-03-29T05:16:00.723Z,6.67
2023-03-29T05:18:31.056Z,5.23
2023-03-29T05:20:59.628Z,6.97
2023-03-29T05:23:27.883Z,6.63
2023-03-29T05:25:57.104Z,5.37
2023-03-29T05:28:24.901Z,6.03
2023-03-29T05:31:02.670Z,5.43
2023-03-29T05:33:32.745Z,6.03
2023-03-29T05:36:01.384Z,4.63
2023-03-29T05:38:30.936Z,6.70
2023-03-29T05:40:58.888Z,5.23
2023-03-29T05:43:27.007Z,5.37
2023-03-29T05:45:55.226Z,3.67
2023-03-29T05:48:23.866Z,6.40
2023-03-29T05:50:54.608Z,6.00
2023-03-29T05:53:25.444Z,5.53
2023-03-29T05:55:53.328Z,5.00
2023-03-29T05:58:21.811Z,6.77
2023-03-29T06:00:51.449Z,5.53
2023-03-29T06:03:23.724Z,5.63
2023-03-29T06:05:59.261Z,12.30
2023-03-29T06:08:27.609Z,9.13
2023-03-29T06:10:59.672Z,6.37
2023-03-29T06:13:28.656Z,6.60
2023-03-29T06:15:57.007Z,6.07
2023-03-29T06:18:25.016Z,7.80
2023-03-29T06:20:54.175Z,8.63
2023-03-29T06:23:24.262Z,6.87
2023-03-29T06:25:52.384Z,9.70
2023-03-29T06:28:20.601Z,4.47
2023-03-29T06:30:49.369Z,7.70
2023-03-29T06:33:18.848Z,8.80
2023-03-29T06:35:49.455Z,7.53
2023-03-29T06:38:17.932Z,7.60
2023-03-29T06:40:48.286Z,10.23
2023-03-29T06:43:16.147Z,8.70
2023-03-29T06:45:44.682Z,8.90
2023-03-29T06:48:12.602Z,6.53
2023-03-29T06:50:40.773Z,6.60
2023-03-29T06:53:08.758Z,9.20
2023-03-29T06:55:36.555Z,9.70
2023-03-29T06:58:05.741Z,9.17
2023-03-29T07:00:35.870Z,12.17
2023-03-29T07:03:07.220Z,6.60
2023-03-29T07:05:37.283Z,9.13
2023-03-29T07:08:13.934Z,9.40
2023-03-29T07:10:44.260Z,9.70
2023-03-29T07:13:14.033Z,7.70
2023-03-29T07:15:43.040Z,8.43
2023-03-29T07:18:12.514Z,7.50
2023-03-29T07:20:41.717Z,10.10
2023-03-29T07:23:10.458Z,11.43
2023-03-29T07:25:39.295Z,8.53
2023-03-29T07:28:07.497Z,8.37
2023-03-29T07:30:37.212Z,10.87
2023-03-29T07:33:05.431Z,13.53
2023-03-29T07:35:33.374Z,11.73
2023-03-29T07:38:01.230Z,14.13
2023-03-29T07:40:29.637Z,15.37
2023-03-29T07:42:58.802Z,10.67
2023-03-29T07:45:29.152Z,10.10
2023-03-29T07:48:00.256Z,12.33
2023-03-29T07:50:29.205Z,11.53
2023-03-29T07:52:57.612Z,10.43
2023-03-29T07:55:25.563Z,11.07
2023-03-29T07:57:53.643Z,11.20
2023-03-29T08:00:22.588Z,13.37
2023-03-29T08:02:52.457Z,13.00
2023-03-29T08:05:37.732Z,8.67
2023-03-29T08:08:09.725Z,9.67
2023-03-29T08:10:39.369Z,12.33
2023-03-29T08:13:09.268Z,12.37
2023-03-29T08:15:39.163Z,10.03
2023-03-29T08:18:07.476Z,8.37
2023-03-29T08:20:37.125Z,9.73
2023-03-29T08:23:05.049Z,10.27
2023-03-29T08:25:32.948Z,11.80
2023-03-29T08:28:00.763Z,11.70
2023-03-29T08:30:28.810Z,11.67
2023-03-29T08:32:56.781Z,9.93
2023-03-29T08:35:24.805Z,9.03
2023-03-29T08:37:54.061Z,12.23
2023-03-29T08:40:26.359Z,9.10
2023-03-29T08:43:25.975Z,9.33
2023-03-29T08:46:02.906Z,8.97
2023-03-29T08:48:35.131Z,6.77
2023-03-29T08:51:07.961Z,9.87
2023-03-29T08:53:45.274Z,10.20
2023-03-29T08:56:16.187Z,10.63
2023-03-29T08:58:46.685Z,7.03
2023-03-29T09:01:14.840Z,9.90
2023-03-29T09:03:48.470Z,6.87
2023-03-29T09:06:20.854Z,12.20
2023-03-29T09:08:52.149Z,9.17
2023-03-29T09:11:38.484Z,8.10
2023-03-29T09:14:23.757Z,8.13
2023-03-29T09:17:00.762Z,6.60
2023-03-29T09:19:35.803Z,9.50
2023-03-29T09:22:11.008Z,10.27
2023-03-29T09:24:54.214Z,6.80
2023-03-29T09:27:27.666Z,8.50
2023-03-29T09:30:10.740Z,7.17
2023-03-29T09:32:48.199Z,7.63
2023-03-29T09:35:22.206Z,5.60
2023-03-29T09:37:52.585Z,6.37
2023-03-29T09:40:25.655Z,10.77
2023-03-29T09:42:56.084Z,9.17
2023-03-29T09:45:24.237Z,8.47
2023-03-29T09:47:57.040Z,6.53
2023-03-29T09:50:31.965Z,7.10
2023-03-29T09:53:00.618Z,7.20
2023-03-29T09:55:32.379Z,5.60
2023-03-29T09:58:03.012Z,7.47
2023-03-29T10:00:31.034Z,7.53
2023-03-29T10:03:00.100Z,8.57
2023-03-29T10:05:36.429Z,9.23
2023-03-29T10:08:19.761Z,8.50
2023-03-29T10:10:49.593Z,11.27
2023-03-29T10:13:22.906Z,8.53
2023-03-29T10:16:03.582Z,10.07
2023-03-29T10:18:32.448Z,10.43
2023-03-29T10:21:02.548Z,14.23
2023-03-29T10:23:34.613Z,16.60
2023-03-29T10:26:05.539Z,10.87
2023-03-29T10:28:35.033Z,11.43
2023-03-29T10:31:04.126Z,11.40
2023-03-29T10:33:34.908Z,19.60
2023-03-29T10:36:07.400Z,9.17
2023-03-29T10:38:38.121Z,13.17
2023-03-29T10:41:11.745Z,12.60
2023-03-29T10:43:44.150Z,13.57
2023-03-29T10:46:19.540Z,10.10
2023-03-29T10:48:50.276Z,9.20
2023-03-29T10:51:20.038Z,9.93
2023-03-29T10:53:48.272Z,9.20
2023-03-29T10:56:30.683Z,8.97
2023-03-29T10:59:17.313Z,13.23
2023-03-29T11:01:54.298Z,11.07
2023-03-29T11:04:31.988Z,11.20
2023-03-29T11:07:22.580Z,10.67
2023-03-29T11:09:56.260Z,13.10
2023-03-29T11:12:29.633Z,10.90
2023-03-29T11:15:12.794Z,8.43
2023-03-29T11:17:54.820Z,11.00
2023-03-29T11:20:31.859Z,11.53
2023-03-29T11:23:16.397Z,10.93
2023-03-29T11:25:55.666Z,12.00
2023-03-29T11:28:35.352Z,7.83
2023-03-29T11:31:11.671Z,9.40
2023-03-29T11:33:51.268Z,10.57
2023-03-29T11:36:26.374Z,11.33
2023-03-29T11:39:04.302Z,10.07
2023-03-29T11:41:35.408Z,8.93
2023-03-29T11:44:11.035Z,8.90
2023-03-29T11:46:42.605Z,10.17
2023-03-29T11:49:16.077Z,10.10
2023-03-29T11:51:47.325Z,16.03
2023-03-29T11:54:21.246Z,10.73
2023-03-29T11:56:54.598Z,10.03
2023-03-29T11:59:28.112Z,9.30
2023-03-29T12:02:01.177Z,11.13
2023-03-29T12:04:33.586Z,12.03
2023-03-29T12:07:12.057Z,12.20
2023-03-29T12:09:42.938Z,10.83
2023-03-29T12:12:20.005Z,12.53
2023-03-29T12:15:00.964Z,13.47
2023-03-29T12:17:33.595Z,11.17
2023-03-29T12:20:14.284Z,9.77
2023-03-29T12:22:42.075Z,11.30
2023-03-29T12:25:18.830Z,6.87
2023-03-29T12:28:00.717Z,6.37
2023-03-29T12:30:50.803Z,6.57
2023-03-29T12:33:33.526Z,8.63
2023-03-29T12:36:14.948Z,5.00
2023-03-29T12:38:44.907Z,6.73
2023-03-29T12:41:19.074Z,7.80
2023-03-29T12:43:48.169Z,5.20
2023-03-29T12:46:20.422Z,7.47
2023-03-29T12:48:52.553Z,7.27
2023-03-29T12:51:23.484Z,6.10
2023-03-29T12:53:53.612Z,7.80
2023-03-29T12:56:23.754Z,4.83
2023-03-29T12:59:06.806Z,5.43
2023-03-29T13:01:37.994Z,9.70
2023-03-29T13:04:16.965Z,7.67
2023-03-29T13:07:04.057Z,4.83
2023-03-29T13:09:35.906Z,7.37
2023-03-29T13:12:20.258Z,7.13
2023-03-29T13:14:52.796Z,5.83
2023-03-29T13:17:27.719Z,14.63
2023-03-29T13:20:12.493Z,8.33
2023-03-29T13:22:49.016Z,8.07
2023-03-29T13:25:35.697Z,10.50
2023-03-29T13:28:12.246Z,11.53
2023-03-29T13:30:52.976Z,9.80
2023-03-29T13:33:39.661Z,10.40
2023-03-29T13:36:15.502Z,7.67
2023-03-29T13:38:48.716Z,8.83
2023-03-29T13:41:32.605Z,8.57
2023-03-29T13:44:01.732Z,8.87
2023-03-29T13:46:41.424Z,8.53
2023-03-29T13:49:21.500Z,9.33
2023-03-29T13:52:04.048Z,7.87
2023-03-29T13:54:37.620Z,11.30
2023-03-29T13:57:12.824Z,8.60
2023-03-29T13:59:50.462Z,8.67
2023-03-29T14:02:26.336Z,8.50
2023-03-29T14:04:56.220Z,9.00
2023-03-29T14:07:26.549Z,10.80
2023-03-29T14:09:58.175Z,8.50
2023-03-29T14:12:32.086Z,7.53
2023-03-29T14:15:03.600Z,8.70
2023-03-29T14:17:31.971Z,10.30
2023-03-29T14:20:02.156Z,9.97
2023-03-29T14:22:32.202Z,7.43
2023-03-29T14:25:04.883Z,10.60
2023-03-29T14:27:33.539Z,8.23
2023-03-29T14:30:01.278Z,7.60
2023-03-29T14:32:31.349Z,8.67
2023-03-29T14:34:59.171Z,8.03
2023-03-29T14:37:29.800Z,5.73
2023-03-29T14:39:59.838Z,10.30
2023-03-29T14:42:29.505Z,6.80
2023-03-29T14:44:59.827Z,7.97
2023-03-29T14:47:30.230Z,6.70
2023-03-29T14:50:00.882Z,6.80
2023-03-29T14:52:31.871Z,6.93
2023-03-29T14:55:01.871Z,7.17
2023-03-29T14:57:37.849Z,8.03
2023-03-29T15:00:22.207Z,6.17
2023-03-29T15:02:52.401Z,7.87
2023-03-29T15:05:36.596Z,6.17
2023-03-29T15:08:07.479Z,7.67
2023-03-29T15:10:36.798Z,5.03
2023-03-29T15:13:06.716Z,7.77
2023-03-29T15:15:38.517Z,5.53
2023-03-29T15:18:09.019Z,4.93
2023-03-29T15:20:39.766Z,7.27
2023-03-29T15:23:22.004Z,6.47
2023-03-29T15:25:56.041Z,4.77
2023-03-29T15:28:28.231Z,4.63
2023-03-29T15:31:07.711Z,10.70
2023-03-29T15:33:37.789Z,5.17
2023-03-29T15:36:07.575Z,4.30
2023-03-29T15:38:43.998Z,6.63
2023-03-29T15:41:14.842Z,6.77
2023-03-29T15:43:43.357Z,8.67
2023-03-29T15:46:13.365Z,4.60
2023-03-29T15:48:42.172Z,9.40
2023-03-29T15:51:11.690Z,4.07
2023-03-29T15:53:41.404Z,5.97
2023-03-29T15:56:11.467Z,4.20
2023-03-29T15:58:39.513Z,2.83
2023-03-29T16:01:16.019Z,5.70
2023-03-29T16:03:47.476Z,4.27
2023-03-29T16:06:16.079Z,2.37
2023-03-29T16:08:46.092Z,2.97
2023-03-29T16:11:13.975Z,4.40
2023-03-29T16:13:41.838Z,2.93
2023-03-29T16:16:11.475Z,5.57
2023-03-29T16:18:39.549Z,3.40
2023-03-29T16:21:09.302Z,2.80
2023-03-29T16:23:38.915Z,3.70
2023-03-29T16:26:08.781Z,4.57
2023-03-29T16:28:37.700Z,3.07
2023-03-29T16:31:06.207Z,4.97
2023-03-29T16:33:34.220Z,5.23
2023-03-29T16:36:02.226Z,5.30
2023-03-29T16:38:30.762Z,5.53
2023-03-29T16:40:58.627Z,6.57
2023-03-29T16:43:27.878Z,7.03
2023-03-29T16:45:55.691Z,4.53
2023-03-29T16:48:23.686Z,4.97
2023-03-29T16:50:51.786Z,5.57
2023-03-29T16:53:21.614Z,4.83
2023-03-29T16:55:49.756Z,3.20
2023-03-29T16:58:17.574Z,4.23
2023-03-29T17:00:48.380Z,7.07
2023-03-29T17:03:16.966Z,4.83
2023-03-29T17:05:48.258Z,5.70
2023-03-29T17:08:16.410Z,4.47
2023-03-29T17:10:44.419Z,3.40
2023-03-29T17:13:12.786Z,3.63
2023-03-29T17:15:41.011Z,5.47
2023-03-29T17:18:10.750Z,3.20
2023-03-29T17:20:39.979Z,5.73
2023-03-29T17:23:08.921Z,4.80
2023-03-29T17:25:36.975Z,7.13
2023-03-29T17:28:05.104Z,5.70
2023-03-29T17:30:34.818Z,4.57
2023-03-29T17:33:03.136Z,5.80
2023-03-29T17:35:32.519Z,4.93
2023-03-29T17:38:00.435Z,3.90
2023-03-29T17:40:28.481Z,4.17
2023-03-29T17:42:56.221Z,5.00
2023-03-29T17:45:24.034Z,4.50
2023-03-29T17:47:51.911Z,5.93
2023-03-29T17:50:19.902Z,4.27
2023-03-29T17:52:49.260Z,7.80
2023-03-29T17:55:17.460Z,5.97
2023-03-29T17:57:45.460Z,6.77
2023-03-29T18:00:14.986Z,5.23
2023-03-29T18:02:43.026Z,5.43
2023-03-29T18:05:11.792Z,9.73
2023-03-29T18:07:39.655Z,7.83
2023-03-29T18:10:09.711Z,8.03
2023-03-29T18:12:37.543Z,7.43
2023-03-29T18:15:06.359Z,6.63
2023-03-29T18:17:35.654Z,6.30
2023-03-29T18:20:06.265Z,5.87
2023-03-29T18:22:34.180Z,7.27
2023-03-29T18:25:01.960Z,5.67
2023-03-29T18:27:31.365Z,8.40
2023-03-29T18:29:59.999Z,5.13
2023-03-29T18:32:27.945Z,5.17
2023-03-29T18:34:55.761Z,6.13
2023-03-29T18:37:23.523Z,8.50
2023-03-29T18:39:51.662Z,7.23
2023-03-29T18:42:21.789Z,7.50
2023-03-29T18:44:51.276Z,7.73
2023-03-29T18:47:19.318Z,4.63
2023-03-29T18:49:47.253Z,5.67
2023-03-29T18:52:15.069Z,7.73
2023-03-29T18:54:43.030Z,6.57
2023-03-29T18:57:10.861Z,6.30
2023-03-29T18:59:38.764Z,7.03
2023-03-29T19:02:08.178Z,9.03
2023-03-29T19:04:36.024Z,5.93
2023-03-29T19:07:03.989Z,8.43
2023-03-29T19:09:32.410Z,6.07
2023-03-29T19:12:00.230Z,4.97
2023-03-29T19:14:28.070Z,8.10
2023-03-29T19:16:56.615Z,5.77
2023-03-29T19:19:26.398Z,4.83
2023-03-29T19:21:55.017Z,7.80
2023-03-29T19:24:23.020Z,6.00
2023-03-29T19:26:52.012Z,6.93
2023-03-29T19:29:19.820Z,6.53
2023-03-29T19:31:47.758Z,5.13
2023-03-29T19:34:19.600Z,7.87
2023-03-29T19:36:48.833Z,4.70
2023-03-29T19:39:16.743Z,8.00
2023-03-29T19:41:44.578Z,6.23
2023-03-29T19:44:13.705Z,7.07
2023-03-29T19:46:42.084Z,6.23
2023-03-29T19:49:13.514Z,6.63
2023-03-29T19:51:41.370Z,5.50
2023-03-29T19:54:12.767Z,7.33
2023-03-29T19:56:42.794Z,6.57
2023-03-29T19:59:14.813Z,4.13
2023-03-29T20:01:51.113Z,7.90
2023-03-29T20:04:19.666Z,7.43
2023-03-29T20:06:47.524Z,5.30
2023-03-29T20:09:16.901Z,6.70
2023-03-29T20:11:46.714Z,7.17
2023-03-29T20:14:14.735Z,4.67
2023-03-29T20:16:44.155Z,6.03
2023-03-29T20:19:14.209Z,10.53
2023-03-29T20:21:42.248Z,5.73
2023-03-29T20:24:10.749Z,5.60
2023-03-29T20:26:39.914Z,10.57
2023-03-29T20:29:08.365Z,6.13
2023-03-29T20:31:36.347Z,6.93
2023-03-29T20:34:04.337Z,5.73
2023-03-29T20:36:32.324Z,5.17
2023-03-29T20:39:01.296Z,7.07
2023-03-29T20:41:29.199Z,10.40
2023-03-29T20:43:59.973Z,7.30
2023-03-29T20:46:33.911Z,5.20
2023-03-29T20:49:02.017Z,8.67
2023-03-29T20:51:32.042Z,4.70
2023-03-29T20:54:04.461Z,8.00
2023-03-29T20:56:33.968Z,6.00
2023-03-29T20:59:04.041Z,4.93
2023-03-29T21:01:32.037Z,5.00
2023-03-29T21:04:00.326Z,5.07
2023-03-29T21:06:28.521Z,7.87
2023-03-29T21:08:57.524Z,7.73
2023-03-29T21:11:25.690Z,3.40
2023-03-29T21:13:53.972Z,5.80
2023-03-29T21:16:25.337Z,4.20
2023-03-29T21:18:54.237Z,2.47
2023-03-29T21:21:22.669Z,4.37
2023-03-29T21:23:50.526Z,3.43
2023-03-29T21:26:18.746Z,5.77
2023-03-29T21:28:48.594Z,6.17
2023-03-29T21:31:16.525Z,8.37
2023-03-29T21:33:45.742Z,5.27
2023-03-29T21:36:13.736Z,3.80
2023-03-29T21:38:41.766Z,7.83
2023-03-29T21:41:10.835Z,8.30
2023-03-29T21:43:38.713Z,5.00
2023-03-29T21:46:07.082Z,4.80
2023-03-29T21:48:35.701Z,2.37
2023-03-29T21:51:06.384Z,3.10
2023-03-29T21:53:34.576Z,3.83
2023-03-29T21:56:02.721Z,5.63
2023-03-29T21:58:30.541Z,6.30
2023-03-29T22:00:58.459Z,3.40
2023-03-29T22:03:26.527Z,6.90
2023-03-29T22:05:59.263Z,10.03
2023-03-29T22:08:28.724Z,5.70
2023-03-29T22:10:57.811Z,7.90
2023-03-29T22:13:26.946Z,6.03
2023-03-29T22:15:59.185Z,6.23
2023-03-29T22:18:30.187Z,5.27
2023-03-29T22:20:58.216Z,4.63
2023-03-29T22:23:26.106Z,4.50
2023-03-29T22:25:55.329Z,4.20
2023-03-29T22:28:23.185Z,4.37
2023-03-29T22:30:51.038Z,6.13
2023-03-29T22:33:18.851Z,5.40
2023-03-29T22:35:46.676Z,5.70
2023-03-29T22:38:14.518Z,6.00
2023-03-29T22:40:42.323Z,6.40
2023-03-29T22:43:11.515Z,4.37
2023-03-29T22:45:39.546Z,4.53
2023-03-29T22:48:07.820Z,5.07
2023-03-29T22:50:35.932Z,4.97
2023-03-29T22:53:03.783Z,7.50
2023-03-29T22:55:31.564Z,3.13
2023-03-29T22:57:59.562Z,4.20
2023-03-29T23:00:28.879Z,3.80
2023-03-29T23:02:57.011Z,4.50
2023-03-29T23:05:24.919Z,3.40
2023-03-29T23:07:52.768Z,3.63
2023-03-29T23:10:20.951Z,5.87
2023-03-29T23:12:49.694Z,3.70
2023-03-29T23:15:18.050Z,4.43
2023-03-29T23:17:47.206Z,3.23
2023-03-29T23:20:16.108Z,3.87
2023-03-29T23:22:43.911Z,3.67
2023-03-29T23:25:11.970Z,3.80
2023-03-29T23:27:39.781Z,4.57
2023-03-29T23:30:08.838Z,8.00
2023-03-29T23:32:36.710Z,3.37
2023-03-29T23:35:07.110Z,4.47
2023-03-29T23:37:34.917Z,4.70
2023-03-29T23:40:02.763Z,11.03
2023-03-29T23:42:30.857Z,5.23
2023-03-29T23:44:58.751Z,3.63
2023-03-29T23:47:27.526Z,9.40
2023-03-29T23:49:55.368Z,7.43
2023-03-29T23:52:24.573Z,3.20
2023-03-29T23:54:52.436Z,4.67
2023-03-29T23:57:21.344Z,8.07
2023-03-29T23:59:52.802Z,3.97
